Time;durP1;ratioP1;P1;durP2;ratioP2;P2;SDS_P1;SDS_P2;PMS_P1;PMS_P2;Temp;Humidity;BMP_temperature;BMP_pressure;BME280_temperature;BME280_humidity;BME280_pressure;Samples;Min_cycle;Max_cycle;Signal;HPM_P1;HPM_P2
2022/12/18 00:00:02;;;;;;;78.90;27.80;;;-2.50;99.90;;;;;;6192570;23;20074;-86
2022/12/18 00:02:31;;;;;;;35.35;14.77;;;-4.00;99.90;;;;;;6217044;23;20012;-88
2022/12/18 00:04:58;;;;;;;76.75;27.15;;;-1.00;99.90;;;;;;6218024;23;20012;-88
2022/12/18 00:07:24;;;;;;;82.38;26.83;;;-2.90;99.90;;;;;;6218394;23;20446;-88
2022/12/18 00:09:50;;;;;;;71.90;22.95;;;-3.00;99.90;;;;;;6217474;23;20023;-87
2022/12/18 00:12:27;;;;;;;78.45;26.90;;;-2.10;99.90;;;;;;6218122;23;20018;-89
2022/12/18 00:14:53;;;;;;;73.18;23.42;;;-3.90;99.90;;;;;;6194210;23;20019;-88
2022/12/18 00:17:25;;;;;;;85.90;27.17;;;-3.20;99.90;;;;;;6218469;23;20055;-87
2022/12/18 00:19:54;;;;;;;79.20;27.52;;;-3.50;99.90;;;;;;6192450;23;20039;-88
2022/12/18 00:22:20;;;;;;;80.35;26.90;;;-1.10;99.90;;;;;;6192662;23;20012;-88
2022/12/18 00:24:46;;;;;;;76.20;24.05;;;-1.50;99.90;;;;;;6217627;23;20016;-87
2022/12/18 00:27:12;;;;;;;80.05;25.85;;;-2.90;99.90;;;;;;6217355;23;20016;-88
2022/12/18 00:29:37;;;;;;;67.45;22.40;;;-2.70;99.90;;;;;;6167396;23;20020;-88
2022/12/18 00:32:03;;;;;;;73.10;25.23;;;-2.30;99.90;;;;;;6218788;23;20026;-88
2022/12/18 00:34:29;;;;;;;77.40;25.83;;;-4.40;99.90;;;;;;6193081;23;20100;-89
2022/12/18 00:36:57;;;;;;;45.70;15.60;;;-1.00;99.90;;;;;;6219414;23;20022;-86
2022/12/18 00:39:23;;;;;;;91.57;28.33;;;-0.10;99.90;;;;;;6194039;23;20019;-88
2022/12/18 00:44:34;;;;;;;52.20;18.42;;;-0.50;99.90;;;;;;6243862;23;20023;-89
2022/12/18 00:47:00;;;;;;;78.00;26.00;;;-0.80;99.90;;;;;;6222789;23;20058;-89
2022/12/18 00:49:29;;;;;;;65.82;23.17;;;-2.40;99.90;;;;;;6221017;23;20323;-88
2022/12/18 00:51:57;;;;;;;82.18;26.08;;;-2.40;99.90;;;;;;6219178;23;20016;-89
2022/12/18 00:54:26;;;;;;;87.10;29.00;;;-3.60;99.90;;;;;;6219407;23;20020;-88
2022/12/18 00:56:52;;;;;;;70.13;24.17;;;-1.70;99.90;;;;;;6192575;23;20070;-88
2022/12/18 00:59:18;;;;;;;80.13;25.60;;;-1.20;99.90;;;;;;6217838;23;20012;-88
2022/12/18 01:01:57;;;;;;;79.28;27.75;;;-0.80;99.90;;;;;;6218497;23;20306;-89
2022/12/18 01:04:23;;;;;;;77.35;27.90;;;-1.80;99.90;;;;;;6217919;23;20020;-89
2022/12/18 01:06:51;;;;;;;79.90;25.83;;;-1.10;99.90;;;;;;6218900;23;20043;-89
2022/12/18 01:09:17;;;;;;;66.10;23.70;;;-2.50;99.90;;;;;;6192547;23;20087;-89
2022/12/18 01:11:43;;;;;;;60.67;21.40;;;-0.30;99.90;;;;;;6218576;23;20047;-88
2022/12/18 01:14:11;;;;;;;67.25;22.77;;;-3.20;99.90;;;;;;6217870;23;20070;-89
2022/12/18 01:16:37;;;;;;;81.82;28.27;;;-2.40;99.90;;;;;;6217901;23;20016;-90
2022/12/18 01:19:08;;;;;;;68.28;23.05;;;-3.30;99.90;;;;;;6217934;23;20545;-89
2022/12/18 02:12:01;;;;;;;90.75;32.17;;;-3.20;99.90;;;;;;6034543;23;20469;-90
2022/12/18 02:19:32;;;;;;;76.40;24.65;;;-3.20;99.90;;;;;;5977366;24;20343;-90
2022/12/18 02:22:45;;;;;;;69.13;25.17;;;-3.90;99.90;;;;;;5937353;24;20525;-90
2022/12/18 02:33:14;;;;;;;75.28;26.00;;;-3.80;99.90;;;;;;5918220;24;20013;-89
2022/12/18 02:35:53;;;;;;;73.15;24.20;;;-3.80;99.90;;;;;;5913324;23;20083;-91
2022/12/18 02:39:00;;;;;;;75.35;26.02;;;-3.30;99.90;;;;;;5965294;23;20092;-90
2022/12/18 02:41:53;;;;;;;56.42;21.88;;;-4.20;99.90;;;;;;6092130;23;20021;-90
2022/12/18 02:44:28;;;;;;;81.53;27.83;;;-2.60;99.90;;;;;;6103238;23;20018;-90
2022/12/18 02:47:35;;;;;;;81.03;26.35;;;-3.70;99.90;;;;;;6084928;23;20013;-91
2022/12/18 02:53:52;;;;;;;103.35;34.15;;;-2.50;99.90;;;;;;6261370;23;20020;-90
2022/12/18 02:56:44;;;;;;;78.80;24.58;;;-3.80;99.90;;;;;;6239864;23;20019;-90
2022/12/18 02:59:22;;;;;;;95.88;32.97;;;-3.30;99.90;;;;;;6244778;23;20004;-90
2022/12/18 03:01:58;;;;;;;108.22;32.97;;;-5.10;99.90;;;;;;6245480;22;20000;-90
2022/12/18 03:04:39;;;;;;;;;;;-4.00;99.90;;;;;;6249727;22;20019;-89
2022/12/18 03:07:11;;;;;;;109.72;36.67;;;-3.90;99.90;;;;;;6241701;22;19950;-90
2022/12/18 03:09:42;;;;;;;66.68;25.08;;;-3.90;99.90;;;;;;6244941;22;20034;-88
2022/12/18 03:12:38;;;;;;;82.07;28.50;;;-2.40;99.90;;;;;;6246066;22;20026;-90
2022/12/18 03:15:26;;;;;;;82.80;28.73;;;-3.90;99.90;;;;;;6247694;22;20046;-89
2022/12/18 03:18:02;;;;;;;100.30;32.80;;;-4.20;99.90;;;;;;6242732;22;20046;-91
2022/12/18 03:20:33;;;;;;;87.95;32.90;;;-3.60;99.90;;;;;;6232069;22;20016;-89
2022/12/18 03:23:13;;;;;;;98.60;32.63;;;-1.50;99.90;;;;;;6224506;22;20054;-89
2022/12/18 03:25:53;;;;;;;103.80;34.00;;;-4.00;99.90;;;;;;6224495;22;20344;-90
2022/12/18 03:28:23;;;;;;;101.88;33.63;;;-1.30;99.90;;;;;;6224187;22;20018;-88
2022/12/18 03:31:00;;;;;;;79.13;26.92;;;-3.30;99.90;;;;;;6224145;22;20016;-88
2022/12/18 03:33:46;;;;;;;90.63;32.78;;;-1.80;99.90;;;;;;6225628;22;20090;-89
2022/12/18 03:36:24;;;;;;;92.90;30.08;;;-4.00;99.90;;;;;;6225126;22;20034;-89
2022/12/18 03:38:57;;;;;;;98.10;34.80;;;-1.90;99.90;;;;;;6223397;22;20050;-89
2022/12/18 03:41:45;;;;;;;90.05;31.92;;;-3.40;99.90;;;;;;6156561;23;20017;-88
2022/12/18 03:44:21;;;;;;;103.93;36.20;;;-3.50;99.90;;;;;;6133312;23;20025;-88
2022/12/18 03:47:10;;;;;;;100.28;35.13;;;-4.10;99.90;;;;;;6182443;23;20013;-89
2022/12/18 03:49:43;;;;;;;86.78;33.50;;;-1.80;99.90;;;;;;6156870;23;20022;-88
2022/12/18 03:52:23;;;;;;;96.00;33.20;;;-3.70;99.90;;;;;;6182034;23;20021;-89
2022/12/18 03:54:49;;;;;;;97.53;33.83;;;-5.70;99.90;;;;;;6181019;23;20067;-89
2022/12/18 03:57:25;;;;;;;99.00;35.30;;;-5.70;99.90;;;;;;6157667;23;20017;-88
2022/12/18 04:00:30;;;;;;;94.95;35.33;;;-4.20;99.90;;;;;;6156718;23;20414;-90
2022/12/18 04:03:23;;;;;;;73.70;29.40;;;-4.00;99.90;;;;;;6158171;23;20510;-89
2022/12/18 04:06:05;;;;;;;74.53;26.05;;;-5.20;99.90;;;;;;6022607;23;20046;-88
2022/12/18 04:08:34;;;;;;;84.43;30.83;;;-2.80;99.90;;;;;;6023987;23;20018;-88
2022/12/18 04:11:01;;;;;;;88.70;30.73;;;-3.00;99.90;;;;;;6027119;23;20038;-89
2022/12/18 04:13:36;;;;;;;82.57;28.77;;;-2.80;99.90;;;;;;6029624;23;20078;-89
2022/12/18 04:16:14;;;;;;;;;;;-4.10;99.90;;;;;;6035218;23;20010;-88
2022/12/18 04:18:45;;;;;;;75.63;28.73;;;-2.20;99.90;;;;;;6075159;23;19952;-89
2022/12/18 04:21:17;;;;;;;62.17;22.35;;;-4.40;99.90;;;;;;6095398;23;20013;-88
2022/12/18 04:23:52;;;;;;;88.28;31.02;;;-2.90;99.90;;;;;;6108823;23;20105;-88
2022/12/18 04:26:24;;;;;;;85.13;31.83;;;-4.30;99.90;;;;;;6101987;23;20013;-89
2022/12/18 04:28:53;;;;;;;74.03;28.35;;;-4.70;99.90;;;;;;6103588;23;20013;-88
2022/12/18 04:31:21;;;;;;;58.92;22.52;;;;;;;;;;6219582;22;20011;-89
2022/12/18 04:33:47;;;;;;;74.30;27.50;;;-4.40;99.90;;;;;;6223872;22;20012;-89
2022/12/18 04:36:15;;;;;;;68.63;24.63;;;-3.90;99.90;;;;;;6223941;22;20022;-88
2022/12/18 04:38:43;;;;;;;66.47;24.15;;;-2.40;99.90;;;;;;6224151;22;20331;-89
2022/12/18 04:41:09;;;;;;;65.15;25.05;;;-4.60;99.90;;;;;;6224497;22;20012;-89
2022/12/18 04:43:36;;;;;;;54.70;20.38;;;-1.80;99.90;;;;;;6224106;22;20026;-89
2022/12/18 04:46:05;;;;;;;87.25;32.83;;;-2.20;99.90;;;;;;6225261;22;20023;-90
2022/12/18 04:48:35;;;;;;;76.53;27.77;;;-4.50;99.90;;;;;;6222586;22;20012;-90
2022/12/18 04:51:02;;;;;;;81.55;31.17;;;-4.20;99.90;;;;;;6223464;22;20015;-88
2022/12/18 04:53:31;;;;;;;71.72;26.48;;;-4.10;99.90;;;;;;6223303;22;20018;-88
2022/12/18 04:56:13;;;;;;;87.20;30.25;;;-2.70;99.90;;;;;;6223994;22;20094;-90
2022/12/18 04:58:40;;;;;;;61.13;22.63;;;-4.50;99.90;;;;;;6224685;22;20510;-89
2022/12/18 05:01:14;;;;;;;70.63;25.20;;;-4.10;99.90;;;;;;6223249;22;20069;-89
2022/12/18 05:03:40;;;;;;;77.88;30.48;;;-4.50;99.90;;;;;;6223484;22;20007;-89
2022/12/18 05:06:07;;;;;;;73.25;25.58;;;-5.50;99.90;;;;;;6227182;22;20368;-89
2022/12/18 05:08:33;;;;;;;70.10;26.73;;;-4.70;99.90;;;;;;6236275;22;20436;-90
2022/12/18 05:11:05;;;;;;;73.30;27.70;;;-4.40;99.90;;;;;;6243832;22;20017;-89
2022/12/18 05:13:31;;;;;;;59.47;23.70;;;-4.20;99.90;;;;;;6246005;22;20046;-89
2022/12/18 05:16:09;;;;;;;68.60;25.95;;;-2.00;99.90;;;;;;6247670;22;20019;-89
2022/12/18 05:18:38;;;;;;;70.22;27.77;;;-4.40;99.90;;;;;;6234118;22;20019;-89
2022/12/18 05:21:27;;;;;;;64.88;25.52;;;-3.90;99.90;;;;;;6229858;22;20047;-89
2022/12/18 05:24:04;;;;;;;78.25;29.60;;;-4.60;99.90;;;;;;6228473;22;20063;-89
2022/12/18 05:26:51;;;;;;;62.47;26.88;;;-4.50;99.90;;;;;;6231263;22;20034;-89
2022/12/18 05:29:18;;;;;;;76.43;30.38;;;-4.60;99.90;;;;;;6215502;22;20046;-89
2022/12/18 05:31:47;;;;;;;73.38;27.10;;;-3.90;99.90;;;;;;6244074;22;20025;-89
2022/12/18 05:34:14;;;;;;;58.78;24.52;;;-4.70;99.90;;;;;;6244006;22;20016;-89
2022/12/18 05:36:45;;;;;;;54.75;21.60;;;-5.80;99.90;;;;;;6216106;22;20015;-89
2022/12/18 05:39:14;;;;;;;70.68;26.17;;;-5.10;99.90;;;;;;6210576;22;20016;-90
2022/12/18 05:41:49;;;;;;;69.35;27.98;;;-3.00;99.90;;;;;;6232844;22;20034;-89
2022/12/18 05:44:15;;;;;;;58.70;24.08;;;-2.40;99.90;;;;;;6202486;22;20023;-90
2022/12/18 05:46:44;;;;;;;66.07;25.20;;;-2.50;99.90;;;;;;6226360;22;20058;-88
2022/12/18 05:49:13;;;;;;;63.13;24.17;;;-4.90;99.90;;;;;;6202133;22;20073;-88
2022/12/18 05:51:39;;;;;;;65.28;26.13;;;-2.50;99.90;;;;;;6199538;22;20011;-88
2022/12/18 05:54:09;;;;;;;67.57;27.35;;;-4.70;99.90;;;;;;6201181;22;20018;-88
2022/12/18 05:56:53;;;;;;;69.00;26.73;;;-2.50;99.90;;;;;;6200899;22;20062;-89
2022/12/18 05:59:31;;;;;;;71.90;26.67;;;-4.40;99.90;;;;;;6223648;22;20019;-89
2022/12/18 06:02:00;;;;;;;58.58;25.02;;;-4.90;99.90;;;;;;6200102;22;20008;-90
2022/12/18 06:04:28;;;;;;;56.50;22.98;;;-4.70;99.90;;;;;;6221508;22;20016;-88
2022/12/18 06:06:54;;;;;;;51.05;23.58;;;-2.20;99.90;;;;;;6248438;22;20012;-88
2022/12/18 06:09:57;;;;;;;48.92;19.60;;;-4.80;99.90;;;;;;6223519;22;20572;-88
2022/12/18 06:12:25;;;;;;;54.20;21.95;;;-4.80;99.90;;;;;;6222585;22;20310;-89
2022/12/18 06:14:51;;;;;;;56.50;24.00;;;-3.00;99.90;;;;;;6197854;22;20070;-88
2022/12/18 06:17:28;;;;;;;48.15;19.67;;;-4.30;99.90;;;;;;6224649;22;20016;-88
2022/12/18 06:20:22;;;;;;;50.67;20.20;;;-4.50;99.90;;;;;;6226701;22;20020;-88
2022/12/18 06:22:56;;;;;;;55.70;21.25;;;-7.60;99.90;;;;;;6249771;22;20098;-89
2022/12/18 06:25:25;;;;;;;50.83;20.38;;;-4.90;99.90;;;;;;6223073;22;20016;-88
2022/12/18 06:27:51;;;;;;;49.90;21.27;;;-3.50;99.90;;;;;;6223002;22;20022;-87
2022/12/18 06:30:16;;;;;;;46.05;20.45;;;-5.00;99.90;;;;;;6224232;22;20019;-88
2022/12/18 06:32:43;;;;;;;48.42;23.42;;;-4.70;99.90;;;;;;6198512;22;20514;-88
2022/12/18 06:35:09;;;;;;;43.72;18.67;;;-4.00;99.90;;;;;;6223914;22;20026;-88
2022/12/18 06:37:35;;;;;;;48.42;21.30;;;-4.50;99.90;;;;;;6199093;22;20016;-87
2022/12/18 06:40:05;;;;;;;50.75;22.77;;;-2.40;99.90;;;;;;6224285;22;20015;-88
2022/12/18 06:42:31;;;;;;;44.83;19.10;;;-4.90;99.90;;;;;;6194497;23;20087;-89
2022/12/18 06:44:57;;;;;;;40.25;16.25;;;-3.40;99.90;;;;;;6193283;23;20017;-88
2022/12/18 06:47:23;;;;;;;39.92;18.85;;;-3.00;99.90;;;;;;6216611;23;20016;-87
2022/12/18 06:49:49;;;;;;;49.97;19.55;;;;;;;;;;6218201;23;20070;-87
2022/12/18 06:52:17;;;;;;;47.20;20.08;;;-4.90;99.90;;;;;;6218390;23;20051;-87
2022/12/18 06:54:43;;;;;;;43.95;20.23;;;-5.00;99.90;;;;;;6193421;23;20012;-87
2022/12/18 06:57:08;;;;;;;32.47;13.38;;;-4.60;99.90;;;;;;6242902;23;20042;-87
2022/12/18 06:59:37;;;;;;;44.28;19.73;;;-2.50;99.90;;;;;;6167219;23;20338;-89
2022/12/18 07:02:04;;;;;;;38.50;17.23;;;-5.00;99.90;;;;;;6191891;23;20016;-86
2022/12/18 07:04:30;;;;;;;40.88;18.40;;;-2.70;99.90;;;;;;6189288;23;20475;-87
2022/12/18 07:06:57;;;;;;;39.70;17.50;;;-5.70;99.90;;;;;;6215210;23;20016;-86
2022/12/18 07:09:23;;;;;;;39.35;15.70;;;-5.60;99.90;;;;;;6193485;23;20016;-87
2022/12/18 07:11:49;;;;;;;36.28;16.67;;;-3.90;99.90;;;;;;6194036;23;20016;-87
2022/12/18 07:14:14;;;;;;;39.10;15.82;;;-2.90;99.90;;;;;;6219555;23;20034;-87
2022/12/18 07:16:41;;;;;;;36.35;15.77;;;;;;;;;;6218349;23;20554;-86
2022/12/18 07:19:06;;;;;;;39.15;17.42;;;-5.30;99.90;;;;;;6218325;23;20016;-86
2022/12/18 07:21:32;;;;;;;40.70;18.45;;;-5.30;99.90;;;;;;6194123;23;20067;-86
2022/12/18 07:23:59;;;;;;;48.35;21.17;;;-6.10;99.90;;;;;;6192620;23;20740;-88
2022/12/18 07:26:26;;;;;;;35.58;16.10;;;-5.40;99.90;;;;;;6190935;23;20019;-88
2022/12/18 07:28:55;;;;;;;39.42;18.52;;;-5.50;99.90;;;;;;6168337;23;20012;-88
2022/12/18 07:31:22;;;;;;;38.00;17.40;;;-5.00;99.90;;;;;;6217994;23;20019;-88
2022/12/18 07:34:14;;;;;;;35.03;16.80;;;-5.60;99.90;;;;;;6192776;23;20016;-88
2022/12/18 07:36:43;;;;;;;40.38;17.90;;;-3.70;99.90;;;;;;6219355;23;20605;-88
2022/12/18 07:39:11;;;;;;;42.22;18.17;;;-5.50;99.90;;;;;;6193008;23;20012;-89
2022/12/18 07:41:37;;;;;;;36.75;17.15;;;-5.60;99.90;;;;;;6217777;23;20012;-88
2022/12/18 07:44:03;;;;;;;38.85;18.10;;;-2.90;99.90;;;;;;6194020;23;20024;-89
2022/12/18 07:46:31;;;;;;;44.85;18.60;;;-3.30;99.90;;;;;;6244373;23;20020;-89
2022/12/18 07:48:58;;;;;;;34.97;17.25;;;;;;;;;;6193519;23;20012;-88
2022/12/18 07:51:24;;;;;;;39.78;17.85;;;-5.50;99.90;;;;;;6193478;23;20015;-88
2022/12/18 07:53:49;;;;;;;36.97;15.48;;;-4.60;99.90;;;;;;6220076;23;20016;-87
2022/12/18 07:56:16;;;;;;;41.63;19.90;;;-3.30;99.90;;;;;;6218827;23;20019;-88
2022/12/18 07:58:45;;;;;;;33.88;15.43;;;-7.50;99.90;;;;;;6219046;23;20020;-88
2022/12/18 08:01:12;;;;;;;40.30;18.05;;;-5.10;99.90;;;;;;6168547;23;20012;-87
2022/12/18 08:03:41;;;;;;;36.33;17.35;;;-5.30;99.90;;;;;;6217703;23;20016;-87
2022/12/18 08:06:09;;;;;;;23.98;12.00;;;-4.90;99.90;;;;;;6219022;23;20012;-88
2022/12/18 08:08:35;;;;;;;31.70;14.38;;;-2.10;99.90;;;;;;6193425;23;20050;-88
2022/12/18 08:11:02;;;;;;;28.95;15.57;;;-3.70;99.90;;;;;;6245371;23;20341;-89
2022/12/18 08:13:28;;;;;;;34.10;16.38;;;-2.70;99.90;;;;;;6219781;23;20019;-88
2022/12/18 08:15:57;;;;;;;33.50;17.00;;;-2.60;99.90;;;;;;6218065;23;20039;-88
2022/12/18 08:18:27;;;;;;;37.55;16.83;;;-3.00;99.90;;;;;;6218212;23;20041;-88
2022/12/18 08:20:53;;;;;;;40.65;16.33;;;-3.20;99.90;;;;;;6218907;23;20019;-88
2022/12/18 08:23:21;;;;;;;34.28;16.33;;;-5.20;99.90;;;;;;6219361;23;20008;-89
2022/12/18 08:25:51;;;;;;;34.00;16.88;;;-3.50;99.90;;;;;;6194732;23;20016;-90
2022/12/18 08:28:22;;;;;;;26.48;12.98;;;-3.90;99.90;;;;;;6193865;23;20016;-89
2022/12/18 08:30:57;;;;;;;28.30;14.48;;;-2.90;99.90;;;;;;6219075;23;20017;-90
2022/12/18 08:33:23;;;;;;;29.35;14.68;;;-6.10;99.90;;;;;;6220273;23;20016;-89
2022/12/18 08:35:58;;;;;;;32.60;16.58;;;-4.30;99.90;;;;;;6218832;23;20016;-90
2022/12/18 08:38:53;;;;;;;35.88;16.77;;;-4.40;99.90;;;;;;6194759;23;20095;-90
2022/12/18 08:44:37;;;;;;;35.57;17.57;;;-3.50;99.90;;;;;;6196892;23;20329;-88
2022/12/18 08:45:18;;;;;;;34.20;17.25;;;-5.00;99.90;;;;;;6209677;23;20099;-91
2022/12/18 08:47:47;;;;;;;30.73;15.25;;;-4.90;99.90;;;;;;6160777;23;20032;-89
2022/12/18 08:50:22;;;;;;;36.22;17.60;;;-4.20;99.90;;;;;;6160709;23;20019;-89
2022/12/18 08:52:47;;;;;;;36.17;17.30;;;-4.90;99.90;;;;;;6159560;23;20016;-89
2022/12/18 08:55:16;;;;;;;35.38;17.77;;;-4.40;99.90;;;;;;6158608;23;20012;-88
2022/12/18 08:57:42;;;;;;;30.38;13.98;;;-4.80;99.90;;;;;;6160231;23;20016;-88
2022/12/18 09:03:16;;;;;;;25.67;11.90;;;-4.20;99.90;;;;;;6161084;23;20389;-89
2022/12/18 09:05:45;;;;;;;28.10;14.48;;;-4.40;99.90;;;;;;6161175;23;20009;-89
2022/12/18 09:08:11;;;;;;;32.15;16.27;;;-3.00;99.90;;;;;;6161097;23;20031;-89
2022/12/18 09:11:11;;;;;;;27.90;14.95;;;-4.00;99.90;;;;;;6161068;23;20016;-89
2022/12/18 09:13:46;;;;;;;28.92;15.23;;;-4.30;99.90;;;;;;6140114;23;20119;-91
2022/12/18 09:16:25;;;;;;;29.55;14.95;;;-4.30;99.90;;;;;;6179615;23;20070;-91
2022/12/18 09:19:20;;;;;;;25.50;14.50;;;-5.80;99.90;;;;;;6193725;23;20039;-91
2022/12/18 09:21:52;;;;;;;27.20;15.13;;;-2.40;99.90;;;;;;6218835;23;20314;-89
2022/12/18 09:24:24;;;;;;;26.17;13.27;;;-4.10;99.90;;;;;;6153828;23;20049;-90
2022/12/18 09:27:25;;;;;;;22.55;12.43;;;-5.50;99.90;;;;;;6157211;23;20013;-90
2022/12/18 09:41:34;;;;;;;22.48;12.82;;;-4.10;99.90;;;;;;6134306;23;20053;-90
2022/12/18 09:44:58;;;;;;;23.77;13.50;;;-3.00;99.90;;;;;;6158636;23;20036;-90
2022/12/18 09:48:08;;;;;;;26.67;14.48;;;-3.30;99.90;;;;;;6144849;23;20055;-90
2022/12/18 09:50:41;;;;;;;23.02;13.27;;;-3.10;99.90;;;;;;6140226;23;20020;-89
2022/12/18 09:56:42;;;;;;;20.70;12.48;;;-1.20;99.90;;;;;;6165776;23;20044;-90
2022/12/18 09:59:53;;;;;;;18.40;10.48;;;-1.90;99.90;;;;;;6232665;23;20018;-89
2022/12/18 10:02:28;;;;;;;19.00;10.57;;;-4.90;99.90;;;;;;6211336;23;20031;-90
2022/12/18 10:05:21;;;;;;;20.55;11.10;;;-3.30;99.90;;;;;;6231982;23;20047;-88
2022/12/18 10:12:26;;;;;;;20.65;10.10;;;-1.90;99.90;;;;;;6214158;23;20013;-94
2022/12/18 10:39:40;;;;;;;12.25;6.43;;;-0.90;99.90;;;;;;6279088;22;20057;-74
2022/12/18 10:42:21;;;;;;;14.30;8.57;;;0.20;99.90;;;;;;6226696;22;20298;-72
2022/12/18 10:45:14;;;;;;;8.93;6.43;;;-1.50;99.90;;;;;;6220307;22;20074;-72
2022/12/18 10:48:19;;;;;;;9.50;5.20;;;-1.80;99.90;;;;;;6224444;22;20368;-73
2022/12/18 10:50:48;;;;;;;10.70;6.22;;;-1.80;99.90;;;;;;6218004;22;20160;-72
2022/12/18 10:53:23;;;;;;;14.88;8.07;;;-1.90;99.90;;;;;;6227980;22;20022;-75
2022/12/18 10:55:55;;;;;;;15.35;8.65;;;-1.90;99.90;;;;;;6224001;22;20102;-71
2022/12/18 10:58:32;;;;;;;15.30;8.07;;;-0.50;99.90;;;;;;6228554;22;20012;-72
2022/12/18 11:01:19;;;;;;;13.48;7.18;;;-2.00;99.90;;;;;;6227502;22;20034;-73
2022/12/18 11:04:21;;;;;;;13.75;7.40;;;-2.00;99.90;;;;;;6228675;22;20015;-73
2022/12/18 11:11:54;;;;;;;;;;;;;;;;;;;;;
2022/12/18 11:18:36;;;;;;;11.80;6.83;;;-1.00;99.90;;;;;;6097531;23;20026;-75
2022/12/18 11:21:08;;;;;;;10.52;5.68;;;0.10;99.90;;;;;;6110973;23;20267;-74
2022/12/18 11:23:36;;;;;;;9.93;5.80;;;-2.00;99.90;;;;;;6191376;23;20144;-74
2022/12/18 11:26:03;;;;;;;10.35;6.43;;;-2.00;99.90;;;;;;6207786;22;20018;-74
2022/12/18 11:28:52;;;;;;;11.90;6.95;;;-2.00;99.90;;;;;;6250579;22;20043;-73
2022/12/18 11:31:27;;;;;;;8.95;4.05;;;-2.00;99.90;;;;;;6253792;22;20016;-73
2022/12/18 11:34:13;;;;;;;11.57;7.07;;;-1.90;99.90;;;;;;6252477;22;20102;-74
2022/12/18 11:36:44;;;;;;;7.70;4.40;;;0.30;99.90;;;;;;6252969;22;20079;-75
2022/12/18 11:39:23;;;;;;;11.35;4.70;;;-0.90;99.90;;;;;;6228310;22;20012;-74
2022/12/18 12:04:53;;;;;;;12.63;6.13;;;-1.60;99.90;;;;;;6037380;23;20041;-73
2022/12/18 12:07:57;;;;;;;6.47;4.47;;;-1.30;99.90;;;;;;6015540;23;20078;-72
2022/12/18 12:11:28;;;;;;;4.88;3.42;;;-1.40;99.90;;;;;;6073380;23;20025;-72
2022/12/18 12:14:16;;;;;;;9.63;5.15;;;-1.40;99.90;;;;;;6061467;23;20017;-72
2022/12/18 12:17:26;;;;;;;10.77;6.30;;;-1.40;99.90;;;;;;6048620;23;20077;-73
2022/12/18 12:24:50;;;;;;;13.13;6.95;;;-1.00;99.90;;;;;;6034287;23;20104;-73
2022/12/18 12:27:48;;;;;;;8.52;4.82;;;-0.90;99.90;;;;;;6038530;23;20023;-72
2022/12/18 12:51:35;;;;;;;9.13;4.53;;;-0.60;99.90;;;;;;5905785;23;20204;-75
2022/12/18 12:58:59;;;;;;;;;;;;;;;;;;;;;
2022/12/18 13:02:34;;;;;;;9.75;5.72;;;-1.10;99.90;;;;;;6039162;23;20043;-72
2022/12/18 13:09:13;;;;;;;10.10;5.75;;;0.40;99.90;;;;;;5900456;24;19966;-73
2022/12/18 13:16:37;;;;;;;;;;;;;;;;;;;;;
2022/12/18 13:20:51;;;;;;;;;;;;;;;;;;;;;
2022/12/18 13:27:41;;;;;;;11.10;6.60;;;-0.70;99.90;;;;;;5939117;24;20067;-73
2022/12/18 13:30:34;;;;;;;8.88;6.15;;;-0.80;99.90;;;;;;5943191;23;20020;-74
2022/12/18 13:33:22;;;;;;;12.15;6.18;;;-0.80;99.90;;;;;;5961611;23;20337;-74
2022/12/18 13:48:41;;;;;;;;;;;;;;;;;;;;;
2022/12/18 14:05:05;;;;;;;9.50;5.93;;;-1.20;99.90;;;;;;5983150;22;8006932;-95
2022/12/18 14:07:33;;;;;;;10.52;5.85;;;-0.70;99.90;;;;;;6233537;22;20029;-95
2022/12/18 14:10:14;;;;;;;8.98;5.78;;;-0.70;99.90;;;;;;6261658;22;20016;-92
2022/12/18 14:12:58;;;;;;;13.50;7.03;;;-0.60;99.90;;;;;;6261758;22;20448;-93
2022/12/18 14:15:27;;;;;;;12.35;6.53;;;0.10;99.90;;;;;;6260269;22;20027;-93
2022/12/18 14:17:56;;;;;;;12.25;6.63;;;-0.80;99.90;;;;;;6260934;22;20042;-94
2022/12/18 14:20:27;;;;;;;8.82;6.03;;;-0.60;99.90;;;;;;6260050;22;20030;-93
2022/12/18 14:22:57;;;;;;;7.68;5.35;;;-0.60;99.90;;;;;;6234795;22;20016;-93
2022/12/18 14:25:27;;;;;;;8.07;5.15;;;0.40;99.90;;;;;;6260832;22;20075;-94
2022/12/18 14:28:08;;;;;;;9.23;5.30;;;-0.90;99.90;;;;;;6261652;22;20012;-94
2022/12/18 14:30:43;;;;;;;12.73;7.30;;;-0.40;99.90;;;;;;6258329;22;20026;-94
2022/12/18 14:33:28;;;;;;;10.70;5.88;;;-1.20;99.90;;;;;;6269523;22;20023;-93
2022/12/18 14:36:03;;;;;;;11.35;6.38;;;-2.20;99.90;;;;;;6277928;22;20024;-95
2022/12/18 14:38:37;;;;;;;9.68;6.00;;;1.10;99.90;;;;;;6273819;22;20452;-95
2022/12/18 14:41:15;;;;;;;9.48;5.53;;;0.30;99.90;;;;;;6272334;22;20016;-94
2022/12/18 14:43:42;;;;;;;8.88;5.57;;;-1.00;99.90;;;;;;6271661;22;20079;-94
2022/12/18 14:46:37;;;;;;;11.82;7.00;;;-1.70;99.90;;;;;;6273290;22;20086;-94
2022/12/18 14:49:29;;;;;;;13.50;7.90;;;-2.80;99.90;;;;;;6273795;22;20027;-93
2022/12/18 14:52:06;;;;;;;12.68;7.07;;;-1.00;99.90;;;;;;6271785;22;20051;-93
2022/12/18 14:54:35;;;;;;;9.73;5.82;;;-1.10;99.90;;;;;;6272728;22;20043;-93
2022/12/18 14:57:04;;;;;;;14.20;6.07;;;-1.10;99.90;;;;;;6271526;22;20035;-96
2022/12/18 14:59:31;;;;;;;12.27;7.15;;;-2.50;99.90;;;;;;6266963;22;20304;-94
2022/12/18 15:02:20;;;;;;;14.93;8.80;;;-1.20;99.90;;;;;;6269627;22;20022;-93
2022/12/18 15:04:48;;;;;;;8.48;5.32;;;-1.10;99.90;;;;;;6263844;22;20007;-93
2022/12/18 15:07:20;;;;;;;12.57;7.57;;;-1.00;99.90;;;;;;6216969;22;20019;-93
2022/12/18 15:10:07;;;;;;;11.88;6.57;;;-1.10;99.90;;;;;;6263797;22;20037;-92
2022/12/18 15:12:39;;;;;;;10.98;6.80;;;-0.60;99.90;;;;;;6260475;22;20003;-94
2022/12/18 15:15:39;;;;;;;9.50;6.00;;;-1.10;99.90;;;;;;6264909;22;20067;-94
2022/12/18 15:21:31;;;;;;;12.32;7.30;;;-1.30;99.90;;;;;;6289632;22;20020;-94
2022/12/18 15:24:19;;;;;;;13.00;6.32;;;-1.20;99.90;;;;;;6275379;22;20069;-94
2022/12/18 15:26:48;;;;;;;14.38;5.25;;;-0.40;99.90;;;;;;6262287;22;20016;-93
2022/12/18 15:32:21;;;;;;;11.18;6.57;;;-1.50;99.90;;;;;;6283525;22;20054;-94
2022/12/18 15:34:47;;;;;;;9.27;6.13;;;-3.00;99.90;;;;;;6257361;22;20027;-93
2022/12/18 15:37:16;;;;;;;16.00;8.63;;;-1.20;99.90;;;;;;6231549;22;20051;-94
2022/12/18 15:39:42;;;;;;;15.25;10.40;;;0.70;99.90;;;;;;6201166;23;20016;-94
2022/12/18 15:45:11;;;;;;;9.27;6.65;;;-2.40;99.90;;;;;;6253302;23;20020;-93
2022/12/18 15:47:37;;;;;;;9.55;5.55;;;-1.60;99.90;;;;;;6201233;22;20042;-94
2022/12/18 15:50:11;;;;;;;11.80;6.78;;;-1.80;99.90;;;;;;6201266;23;20056;-94
2022/12/18 15:52:44;;;;;;;11.50;6.85;;;-1.60;99.90;;;;;;6222274;23;20043;-94
2022/12/18 15:58:04;;;;;;;13.18;5.93;;;-0.20;99.90;;;;;;6246247;23;20020;-94
2022/12/18 16:00:34;;;;;;;10.88;6.53;;;-1.60;99.90;;;;;;6223255;23;20027;-94
2022/12/18 16:03:00;;;;;;;15.18;8.82;;;0.50;99.90;;;;;;6225228;23;20031;-94
2022/12/18 16:05:41;;;;;;;14.00;8.07;;;-0.50;99.90;;;;;;6201596;22;20016;-94
2022/12/18 16:08:08;;;;;;;12.95;7.93;;;-0.60;99.90;;;;;;6227187;23;20008;-95
2022/12/18 16:10:35;;;;;;;10.00;5.72;;;0.40;99.90;;;;;;6176305;23;20440;-93
2022/12/18 16:13:04;;;;;;;12.18;6.95;;;;;;;;;;6245509;22;20016;-94
2022/12/18 16:15:40;;;;;;;12.75;7.68;;;-1.60;99.90;;;;;;6198598;23;20012;-95
2022/12/18 16:18:06;;;;;;;14.00;6.70;;;-1.90;99.90;;;;;;6199687;23;20095;-94
2022/12/18 16:20:38;;;;;;;9.73;7.45;;;-3.10;99.90;;;;;;6197975;23;20016;-94
2022/12/18 16:23:04;;;;;;;14.60;8.05;;;0.50;99.90;;;;;;6199535;23;20445;-94
2022/12/18 16:25:30;;;;;;;17.30;7.38;;;-1.40;99.90;;;;;;6222508;23;20016;-94
2022/12/18 16:27:56;;;;;;;13.65;8.98;;;-1.40;99.90;;;;;;6221419;23;20074;-94
2022/12/18 16:30:30;;;;;;;15.82;9.38;;;0.20;99.90;;;;;;6199684;23;20027;-94
2022/12/18 16:33:05;;;;;;;15.10;6.25;;;0.20;99.90;;;;;;6225796;23;20095;-93
2022/12/18 16:35:37;;;;;;;11.50;8.00;;;-1.20;99.90;;;;;;6223573;23;20067;-94
2022/12/18 16:38:06;;;;;;;15.05;10.20;;;-1.80;99.90;;;;;;6200386;23;20365;-94
2022/12/18 16:41:30;;;;;;;11.45;6.68;;;-1.50;99.90;;;;;;6198081;23;20020;-93
2022/12/18 16:43:23;;;;;;;16.58;10.23;;;-1.40;99.90;;;;;;6225432;23;20082;-94
2022/12/18 16:45:49;;;;;;;13.48;8.70;;;-1.40;99.90;;;;;;6197429;23;20016;-94
2022/12/18 16:48:17;;;;;;;9.30;5.30;;;-2.60;99.90;;;;;;6196558;23;20076;-95
2022/12/18 16:50:44;;;;;;;12.63;8.20;;;-1.40;99.90;;;;;;6221489;23;20003;-93
2022/12/18 16:53:17;;;;;;;12.90;7.93;;;-1.60;99.90;;;;;;6196031;23;20510;-94
2022/12/18 16:55:43;;;;;;;14.77;8.75;;;-1.20;99.90;;;;;;6171251;23;20016;-94
2022/12/18 16:58:18;;;;;;;8.70;5.63;;;-0.40;99.90;;;;;;6196462;23;20016;-94
2022/12/18 17:00:44;;;;;;;10.52;6.38;;;-0.60;99.90;;;;;;6222767;23;20063;-94
2022/12/18 17:03:13;;;;;;;7.78;4.78;;;-1.30;99.90;;;;;;6196007;23;20016;-94
2022/12/18 17:05:47;;;;;;;11.32;7.05;;;0.50;99.90;;;;;;6222933;23;20020;-94
2022/12/18 17:08:13;;;;;;;11.70;7.43;;;-0.80;99.90;;;;;;6174835;23;20020;-93